sensor_id;sensor_type;location;lat;lon;timestamp;pressure;altitude;pressure_sealevel;temperature;humidity
55010;BME280;40903;51.638;7.528;2023-06-14T00:01:35;100849.31;;;18.13;45.50
55010;BME280;40903;51.638;7.528;2023-06-14T00:04:01;100846.41;;;18.10;44.60
55010;BME280;40903;51.638;7.528;2023-06-14T00:06:28;100852.59;;;18.07;44.57
55010;BME280;40903;51.638;7.528;2023-06-14T00:08:53;100856.50;;;18.06;45.42
55010;BME280;40903;51.638;7.528;2023-06-14T00:11:19;100860.28;;;18.01;45.43
55010;BME280;40903;51.638;7.528;2023-06-14T00:13:45;100857.72;;;17.96;44.68
55010;BME280;40903;51.638;7.528;2023-06-14T00:16:10;100865.22;;;17.96;45.02
55010;BME280;40903;51.638;7.528;2023-06-14T00:18:36;100866.31;;;17.95;45.16
55010;BME280;40903;51.638;7.528;2023-06-14T00:21:02;100865.38;;;17.91;45.64
55010;BME280;40903;51.638;7.528;2023-06-14T00:23:27;100870.44;;;17.89;45.07
55010;BME280;40903;51.638;7.528;2023-06-14T00:25:52;100875.00;;;17.85;45.44
55010;BME280;40903;51.638;7.528;2023-06-14T00:28:18;100869.81;;;17.83;45.03
55010;BME280;40903;51.638;7.528;2023-06-14T00:30:43;100873.56;;;17.79;44.64
55010;BME280;40903;51.638;7.528;2023-06-14T00:33:11;100871.84;;;17.75;45.96
55010;BME280;40903;51.638;7.528;2023-06-14T00:35:36;100872.00;;;17.70;45.69
55010;BME280;40903;51.638;7.528;2023-06-14T00:38:02;100875.28;;;17.63;45.30
55010;BME280;40903;51.638;7.528;2023-06-14T00:40:27;100879.06;;;17.59;46.15
55010;BME280;40903;51.638;7.528;2023-06-14T00:42:53;100875.34;;;17.55;46.04
55010;BME280;40903;51.638;7.528;2023-06-14T00:45:18;100876.00;;;17.52;46.35
55010;BME280;40903;51.638;7.528;2023-06-14T00:47:44;100879.44;;;17.49;46.35
55010;BME280;40903;51.638;7.528;2023-06-14T00:50:11;100880.44;;;17.44;46.31
55010;BME280;40903;51.638;7.528;2023-06-14T00:52:36;100875.91;;;17.40;46.88
55010;BME280;40903;51.638;7.528;2023-06-14T00:55:02;100874.78;;;17.32;47.46
55010;BME280;40903;51.638;7.528;2023-06-14T00:57:27;100880.47;;;17.27;46.63
55010;BME280;40903;51.638;7.528;2023-06-14T00:59:55;100876.78;;;17.23;47.14
55010;BME280;40903;51.638;7.528;2023-06-14T01:02:20;100878.53;;;17.19;47.78
55010;BME280;40903;51.638;7.528;2023-06-14T01:04:47;100876.47;;;17.16;47.07
55010;BME280;40903;51.638;7.528;2023-06-14T01:10:35;100893.50;;;17.10;47.78
55010;BME280;40903;51.638;7.528;2023-06-14T01:13:19;100892.38;;;17.02;47.80
55010;BME280;40903;51.638;7.528;2023-06-14T01:15:46;100893.06;;;16.99;47.71
55010;BME280;40903;51.638;7.528;2023-06-14T01:18:12;100891.75;;;16.97;48.09
55010;BME280;40903;51.638;7.528;2023-06-14T01:20:44;100891.16;;;16.91;48.54
55010;BME280;40903;51.638;7.528;2023-06-14T01:23:19;100890.97;;;16.88;48.57
55010;BME280;40903;51.638;7.528;2023-06-14T01:25:46;100896.16;;;16.81;48.65
55010;BME280;40903;51.638;7.528;2023-06-14T01:28:12;100899.25;;;16.79;48.68
55010;BME280;40903;51.638;7.528;2023-06-14T01:30:41;100896.03;;;16.77;48.88
55010;BME280;40903;51.638;7.528;2023-06-14T01:33:14;100896.66;;;16.74;48.84
55010;BME280;40903;51.638;7.528;2023-06-14T01:35:43;100892.16;;;16.70;49.17
55010;BME280;40903;51.638;7.528;2023-06-14T01:38:09;100897.03;;;16.64;49.34
55010;BME280;40903;51.638;7.528;2023-06-14T01:40:38;100896.19;;;16.64;49.37
55010;BME280;40903;51.638;7.528;2023-06-14T01:43:05;100903.19;;;16.61;49.81
55010;BME280;40903;51.638;7.528;2023-06-14T01:45:31;100892.00;;;16.58;50.38
55010;BME280;40903;51.638;7.528;2023-06-14T01:47:57;100900.56;;;16.56;50.07
55010;BME280;40903;51.638;7.528;2023-06-14T01:50:23;100901.22;;;16.53;50.35
55010;BME280;40903;51.638;7.528;2023-06-14T01:52:48;100894.75;;;16.49;50.03
55010;BME280;40903;51.638;7.528;2023-06-14T01:55:13;100902.53;;;16.47;50.13
55010;BME280;40903;51.638;7.528;2023-06-14T01:57:39;100893.81;;;16.45;49.72
55010;BME280;40903;51.638;7.528;2023-06-14T02:00:05;100898.50;;;16.45;50.08
55010;BME280;40903;51.638;7.528;2023-06-14T02:02:37;100889.75;;;16.43;50.02
55010;BME280;40903;51.638;7.528;2023-06-14T02:05:03;100892.03;;;16.41;50.62
55010;BME280;40903;51.638;7.528;2023-06-14T02:07:29;100887.47;;;16.36;50.59
55010;BME280;40903;51.638;7.528;2023-06-14T02:09:54;100892.47;;;16.34;50.98
55010;BME280;40903;51.638;7.528;2023-06-14T02:12:19;100888.75;;;16.30;51.27
55010;BME280;40903;51.638;7.528;2023-06-14T02:14:45;100889.88;;;16.29;51.12
55010;BME280;40903;51.638;7.528;2023-06-14T02:17:10;100885.00;;;16.26;50.86
55010;BME280;40903;51.638;7.528;2023-06-14T02:19:35;100886.50;;;16.24;51.39
55010;BME280;40903;51.638;7.528;2023-06-14T02:22:00;100885.19;;;16.21;51.63
55010;BME280;40903;51.638;7.528;2023-06-14T02:24:26;100890.19;;;16.19;51.60
55010;BME280;40903;51.638;7.528;2023-06-14T02:26:51;100891.34;;;16.18;51.66
55010;BME280;40903;51.638;7.528;2023-06-14T02:29:16;100896.34;;;16.16;51.79
55010;BME280;40903;51.638;7.528;2023-06-14T02:31:42;100893.75;;;16.11;51.81
55010;BME280;40903;51.638;7.528;2023-06-14T02:34:07;100901.03;;;16.07;52.34
55010;BME280;40903;51.638;7.528;2023-06-14T02:36:35;100898.75;;;16.01;52.19
55010;BME280;40903;51.638;7.528;2023-06-14T02:39:06;100898.59;;;15.97;52.52
55010;BME280;40903;51.638;7.528;2023-06-14T02:41:32;100903.13;;;15.93;52.87
55010;BME280;40903;51.638;7.528;2023-06-14T02:43:57;100903.28;;;15.88;52.96
55010;BME280;40903;51.638;7.528;2023-06-14T02:46:23;100909.72;;;15.84;53.19
55010;BME280;40903;51.638;7.528;2023-06-14T02:48:49;100904.88;;;15.81;53.25
55010;BME280;40903;51.638;7.528;2023-06-14T02:51:14;100903.88;;;15.77;53.63
55010;BME280;40903;51.638;7.528;2023-06-14T02:53:39;100902.59;;;15.75;54.20
55010;BME280;40903;51.638;7.528;2023-06-14T02:56:05;100903.72;;;15.74;54.51
55010;BME280;40903;51.638;7.528;2023-06-14T02:58:31;100915.38;;;15.71;54.81
55010;BME280;40903;51.638;7.528;2023-06-14T03:00:56;100919.88;;;15.67;54.72
55010;BME280;40903;51.638;7.528;2023-06-14T03:03:22;100915.31;;;15.62;54.73
55010;BME280;40903;51.638;7.528;2023-06-14T03:05:50;100914.03;;;15.60;54.59
55010;BME280;40903;51.638;7.528;2023-06-14T03:08:16;100923.22;;;15.55;55.14
55010;BME280;40903;51.638;7.528;2023-06-14T03:10:45;100923.03;;;15.52;55.11
55010;BME280;40903;51.638;7.528;2023-06-14T03:13:11;100922.91;;;15.48;55.42
55010;BME280;40903;51.638;7.528;2023-06-14T03:15:37;100936.13;;;15.46;55.62
55010;BME280;40903;51.638;7.528;2023-06-14T03:18:04;100941.75;;;15.41;55.56
55010;BME280;40903;51.638;7.528;2023-06-14T03:20:29;100937.41;;;15.40;56.13
55010;BME280;40903;51.638;7.528;2023-06-14T03:22:59;100944.31;;;15.38;56.34
55010;BME280;40903;51.638;7.528;2023-06-14T03:25:24;100949.66;;;15.34;56.73
55010;BME280;40903;51.638;7.528;2023-06-14T03:27:51;100949.03;;;15.37;56.24
55010;BME280;40903;51.638;7.528;2023-06-14T03:30:16;100953.69;;;15.37;55.95
55010;BME280;40903;51.638;7.528;2023-06-14T03:32:41;100958.41;;;15.36;56.28
55010;BME280;40903;51.638;7.528;2023-06-14T03:35:07;100957.28;;;15.37;56.59
55010;BME280;40903;51.638;7.528;2023-06-14T03:37:32;100956.44;;;15.37;56.82
55010;BME280;40903;51.638;7.528;2023-06-14T03:39:58;100955.16;;;15.34;57.00
55010;BME280;40903;51.638;7.528;2023-06-14T03:42:23;100960.97;;;15.33;56.32
55010;BME280;40903;51.638;7.528;2023-06-14T03:44:48;100964.19;;;15.35;56.42
55010;BME280;40903;51.638;7.528;2023-06-14T03:47:14;100964.69;;;15.37;56.68
55010;BME280;40903;51.638;7.528;2023-06-14T03:49:40;100972.28;;;15.40;56.88
55010;BME280;40903;51.638;7.528;2023-06-14T03:52:06;100974.44;;;15.43;56.36
55010;BME280;40903;51.638;7.528;2023-06-14T03:54:31;100979.09;;;15.42;56.95
55010;BME280;40903;51.638;7.528;2023-06-14T03:56:58;100985.44;;;15.43;56.95
55010;BME280;40903;51.638;7.528;2023-06-14T03:59:23;100985.59;;;15.46;56.98
55010;BME280;40903;51.638;7.528;2023-06-14T04:01:49;100990.78;;;15.48;56.86
55010;BME280;40903;51.638;7.528;2023-06-14T04:04:14;100997.91;;;15.49;57.51
55010;BME280;40903;51.638;7.528;2023-06-14T04:06:41;101000.66;;;15.49;57.35
55010;BME280;40903;51.638;7.528;2023-06-14T04:09:07;101006.44;;;15.47;57.88
55010;BME280;40903;51.638;7.528;2023-06-14T04:11:33;100997.91;;;15.49;58.14
55010;BME280;40903;51.638;7.528;2023-06-14T04:13:58;101008.59;;;15.50;58.61
55010;BME280;40903;51.638;7.528;2023-06-14T04:16:24;101004.72;;;15.51;58.12
55010;BME280;40903;51.638;7.528;2023-06-14T04:18:49;101019.25;;;15.52;57.98
55010;BME280;40903;51.638;7.528;2023-06-14T04:21:17;101019.25;;;15.52;58.52
55010;BME280;40903;51.638;7.528;2023-06-14T04:23:42;101019.75;;;15.54;58.57
55010;BME280;40903;51.638;7.528;2023-06-14T04:26:09;101019.75;;;15.54;59.67
55010;BME280;40903;51.638;7.528;2023-06-14T04:28:35;101023.81;;;15.56;58.82
55010;BME280;40903;51.638;7.528;2023-06-14T04:31:06;101026.41;;;15.61;58.25
55010;BME280;40903;51.638;7.528;2023-06-14T04:33:34;101034.53;;;15.66;58.34
55010;BME280;40903;51.638;7.528;2023-06-14T04:36:08;101034.69;;;15.70;58.55
55010;BME280;40903;51.638;7.528;2023-06-14T04:38:33;101031.94;;;15.70;58.76
55010;BME280;40903;51.638;7.528;2023-06-14T04:40:59;101046.53;;;15.70;58.74
55010;BME280;40903;51.638;7.528;2023-06-14T04:43:26;101047.84;;;15.73;58.65
55010;BME280;40903;51.638;7.528;2023-06-14T04:45:52;101038.47;;;15.74;58.56
55010;BME280;40903;51.638;7.528;2023-06-14T04:48:20;101048.50;;;15.78;59.08
55010;BME280;40903;51.638;7.528;2023-06-14T04:50:46;101051.31;;;15.86;59.01
55010;BME280;40903;51.638;7.528;2023-06-14T04:53:11;101041.94;;;15.96;59.02
55010;BME280;40903;51.638;7.528;2023-06-14T04:55:36;101047.34;;;16.09;58.77
55010;BME280;40903;51.638;7.528;2023-06-14T04:58:02;101047.88;;;16.28;58.59
55010;BME280;40903;51.638;7.528;2023-06-14T05:00:28;101042.13;;;16.47;58.54
55010;BME280;40903;51.638;7.528;2023-06-14T05:02:55;101047.66;;;16.72;57.97
55010;BME280;40903;51.638;7.528;2023-06-14T05:05:22;101051.41;;;16.93;56.50
55010;BME280;40903;51.638;7.528;2023-06-14T05:07:47;101057.88;;;17.14;56.15
55010;BME280;40903;51.638;7.528;2023-06-14T05:10:13;101057.06;;;17.39;55.98
55010;BME280;40903;51.638;7.528;2023-06-14T05:12:38;101054.56;;;17.63;55.47
55010;BME280;40903;51.638;7.528;2023-06-14T05:15:04;101061.69;;;17.81;54.12
55010;BME280;40903;51.638;7.528;2023-06-14T05:17:30;101054.16;;;17.90;53.19
55010;BME280;40903;51.638;7.528;2023-06-14T05:19:55;101054.09;;;18.07;52.73
55010;BME280;40903;51.638;7.528;2023-06-14T05:22:23;101056.16;;;18.18;52.57
55010;BME280;40903;51.638;7.528;2023-06-14T05:24:49;101061.41;;;18.40;52.06
55010;BME280;40903;51.638;7.528;2023-06-14T05:27:16;101052.34;;;18.60;52.79
55010;BME280;40903;51.638;7.528;2023-06-14T05:29:41;101060.13;;;18.87;51.80
55010;BME280;40903;51.638;7.528;2023-06-14T05:32:07;101055.41;;;19.08;50.48
55010;BME280;40903;51.638;7.528;2023-06-14T05:34:32;101053.72;;;19.16;50.89
55010;BME280;40903;51.638;7.528;2023-06-14T05:36:58;101053.59;;;19.33;50.41
55010;BME280;40903;51.638;7.528;2023-06-14T05:39:23;101054.75;;;19.44;49.36
55010;BME280;40903;51.638;7.528;2023-06-14T05:41:49;101064.53;;;19.62;49.48
55010;BME280;40903;51.638;7.528;2023-06-14T05:44:14;101070.53;;;19.76;48.03
55010;BME280;40903;51.638;7.528;2023-06-14T05:46:40;101071.59;;;19.83;47.47
55010;BME280;40903;51.638;7.528;2023-06-14T05:49:06;101074.28;;;19.92;47.67
55010;BME280;40903;51.638;7.528;2023-06-14T05:51:31;101087.19;;;19.99;46.52
55010;BME280;40903;51.638;7.528;2023-06-14T05:53:56;101078.88;;;19.99;46.74
55010;BME280;40903;51.638;7.528;2023-06-14T05:56:22;101087.47;;;20.06;46.87
55010;BME280;40903;51.638;7.528;2023-06-14T05:58:47;101085.97;;;20.09;46.16
55010;BME280;40903;51.638;7.528;2023-06-14T06:01:13;101087.25;;;20.23;46.15
55010;BME280;40903;51.638;7.528;2023-06-14T06:03:39;101089.78;;;20.28;45.74
55010;BME280;40903;51.638;7.528;2023-06-14T06:06:04;101081.94;;;20.42;45.04
55010;BME280;40903;51.638;7.528;2023-06-14T06:08:29;101087.47;;;20.54;44.93
55010;BME280;40903;51.638;7.528;2023-06-14T06:10:56;101089.28;;;20.74;44.10
55010;BME280;40903;51.638;7.528;2023-06-14T06:13:22;101091.38;;;20.65;44.25
55010;BME280;40903;51.638;7.528;2023-06-14T06:15:47;101096.13;;;20.77;44.93
55010;BME280;40903;51.638;7.528;2023-06-14T06:18:12;101095.75;;;20.90;44.31
55010;BME280;40903;51.638;7.528;2023-06-14T06:20:37;101090.91;;;20.99;43.54
55010;BME280;40903;51.638;7.528;2023-06-14T06:23:03;101097.38;;;20.91;42.42
55010;BME280;40903;51.638;7.528;2023-06-14T06:25:28;101093.09;;;21.06;44.23
55010;BME280;40903;51.638;7.528;2023-06-14T06:27:54;101100.31;;;21.10;42.86
55010;BME280;40903;51.638;7.528;2023-06-14T06:30:19;101088.28;;;21.18;43.97
55010;BME280;40903;51.638;7.528;2023-06-14T06:32:45;101087.59;;;21.21;43.82
55010;BME280;40903;51.638;7.528;2023-06-14T06:35:11;101100.38;;;21.38;42.41
55010;BME280;40903;51.638;7.528;2023-06-14T06:37:36;101102.28;;;21.49;41.84
55010;BME280;40903;51.638;7.528;2023-06-14T06:40:02;101110.34;;;21.54;41.17
55010;BME280;40903;51.638;7.528;2023-06-14T06:42:30;101102.88;;;21.70;42.72
55010;BME280;40903;51.638;7.528;2023-06-14T06:44:56;101112.31;;;21.66;42.43
55010;BME280;40903;51.638;7.528;2023-06-14T06:47:21;101114.47;;;21.72;41.81
55010;BME280;40903;51.638;7.528;2023-06-14T06:49:46;101116.38;;;21.84;41.79
55010;BME280;40903;51.638;7.528;2023-06-14T06:52:11;101115.31;;;22.03;41.80
55010;BME280;40903;51.638;7.528;2023-06-14T06:54:36;101122.19;;;21.94;41.47
55010;BME280;40903;51.638;7.528;2023-06-14T06:57:02;101121.59;;;22.01;41.25
55010;BME280;40903;51.638;7.528;2023-06-14T06:59:27;101121.78;;;22.23;41.27
55010;BME280;40903;51.638;7.528;2023-06-14T07:01:52;101127.06;;;22.28;40.59
55010;BME280;40903;51.638;7.528;2023-06-14T07:04:18;101130.47;;;22.21;40.01
55010;BME280;40903;51.638;7.528;2023-06-14T07:06:43;101127.59;;;22.33;40.30
55010;BME280;40903;51.638;7.528;2023-06-14T07:09:09;101130.22;;;22.42;40.41
55010;BME280;40903;51.638;7.528;2023-06-14T07:11:39;101128.94;;;22.24;39.96
55010;BME280;40903;51.638;7.528;2023-06-14T07:14:05;101129.34;;;22.53;41.09
55010;BME280;40903;51.638;7.528;2023-06-14T07:16:30;101129.31;;;22.69;39.02
55010;BME280;40903;51.638;7.528;2023-06-14T07:18:56;101138.72;;;22.80;40.32
55010;BME280;40903;51.638;7.528;2023-06-14T07:21:21;101139.59;;;22.99;38.40
55010;BME280;40903;51.638;7.528;2023-06-14T07:23:47;101140.31;;;23.31;39.83
55010;BME280;40903;51.638;7.528;2023-06-14T07:26:12;101135.03;;;23.45;39.05
55010;BME280;40903;51.638;7.528;2023-06-14T07:28:37;101136.50;;;23.39;38.64
55010;BME280;40903;51.638;7.528;2023-06-14T07:31:02;101140.59;;;23.45;38.26
55010;BME280;40903;51.638;7.528;2023-06-14T07:33:28;101131.47;;;23.63;37.89
55010;BME280;40903;51.638;7.528;2023-06-14T07:35:53;101132.25;;;23.45;38.16
55010;BME280;40903;51.638;7.528;2023-06-14T07:38:19;101141.03;;;23.47;35.95
55010;BME280;40903;51.638;7.528;2023-06-14T07:40:44;101137.97;;;23.71;36.61
55010;BME280;40903;51.638;7.528;2023-06-14T07:43:09;101141.88;;;24.08;35.93
55010;BME280;40903;51.638;7.528;2023-06-14T07:45:35;101145.19;;;24.13;36.21
55010;BME280;40903;51.638;7.528;2023-06-14T07:48:00;101132.59;;;24.22;35.97
55010;BME280;40903;51.638;7.528;2023-06-14T07:50:26;101140.78;;;24.34;34.21
55010;BME280;40903;51.638;7.528;2023-06-14T07:52:51;101136.47;;;24.59;35.38
55010;BME280;40903;51.638;7.528;2023-06-14T07:55:16;101152.28;;;24.78;34.26
55010;BME280;40903;51.638;7.528;2023-06-14T07:57:42;101150.22;;;24.71;34.35
55010;BME280;40903;51.638;7.528;2023-06-14T08:00:09;101153.44;;;24.73;33.55
55010;BME280;40903;51.638;7.528;2023-06-14T08:02:40;101156.31;;;24.80;34.29
55010;BME280;40903;51.638;7.528;2023-06-14T08:05:06;101149.19;;;24.83;32.06
55010;BME280;40903;51.638;7.528;2023-06-14T08:07:31;101151.59;;;24.84;32.55
55010;BME280;40903;51.638;7.528;2023-06-14T08:09:56;101150.94;;;24.68;32.51
55010;BME280;40903;51.638;7.528;2023-06-14T08:12:21;101154.63;;;24.72;32.12
55010;BME280;40903;51.638;7.528;2023-06-14T08:14:47;101156.22;;;24.99;32.74
55010;BME280;40903;51.638;7.528;2023-06-14T08:17:12;101154.94;;;24.93;31.74
55010;BME280;40903;51.638;7.528;2023-06-14T08:19:38;101154.19;;;24.96;32.50
55010;BME280;40903;51.638;7.528;2023-06-14T08:22:03;101149.63;;;24.85;31.46
55010;BME280;40903;51.638;7.528;2023-06-14T08:24:29;101151.81;;;24.72;32.35
55010;BME280;40903;51.638;7.528;2023-06-14T08:26:54;101153.47;;;24.32;32.22
55010;BME280;40903;51.638;7.528;2023-06-14T08:29:19;101142.53;;;24.65;33.28
55010;BME280;40903;51.638;7.528;2023-06-14T08:31:46;101151.59;;;24.58;32.20
55010;BME280;40903;51.638;7.528;2023-06-14T08:34:12;101157.84;;;24.74;32.84
55010;BME280;40903;51.638;7.528;2023-06-14T08:36:37;101158.63;;;24.75;32.07
55010;BME280;40903;51.638;7.528;2023-06-14T08:39:02;101162.44;;;24.63;31.56
55010;BME280;40903;51.638;7.528;2023-06-14T08:41:28;101162.38;;;24.86;31.74
55010;BME280;40903;51.638;7.528;2023-06-14T08:43:55;101166.72;;;24.83;30.61
55010;BME280;40903;51.638;7.528;2023-06-14T08:46:20;101162.94;;;24.69;31.90
55010;BME280;40903;51.638;7.528;2023-06-14T08:48:51;101163.16;;;25.09;32.11
55010;BME280;40903;51.638;7.528;2023-06-14T08:51:18;101166.59;;;25.25;30.09
55010;BME280;40903;51.638;7.528;2023-06-14T08:53:45;101164.81;;;25.39;31.94
55010;BME280;40903;51.638;7.528;2023-06-14T08:56:11;101165.13;;;25.08;30.24
55010;BME280;40903;51.638;7.528;2023-06-14T08:58:42;101168.47;;;25.17;29.91
55010;BME280;40903;51.638;7.528;2023-06-14T09:01:10;101153.34;;;25.48;30.07
55010;BME280;40903;51.638;7.528;2023-06-14T09:03:39;101163.72;;;25.80;29.65
55010;BME280;40903;51.638;7.528;2023-06-14T09:06:06;101165.06;;;25.90;30.45
55010;BME280;40903;51.638;7.528;2023-06-14T09:08:33;101167.72;;;25.79;29.64
55010;BME280;40903;51.638;7.528;2023-06-14T09:11:00;101174.94;;;25.21;30.82
55010;BME280;40903;51.638;7.528;2023-06-14T09:13:26;101162.38;;;25.67;30.50
55010;BME280;40903;51.638;7.528;2023-06-14T09:15:51;101162.13;;;25.79;32.10
55010;BME280;40903;51.638;7.528;2023-06-14T09:18:16;101164.63;;;25.58;30.55
55010;BME280;40903;51.638;7.528;2023-06-14T09:20:42;101169.91;;;25.63;31.16
55010;BME280;40903;51.638;7.528;2023-06-14T09:23:07;101178.19;;;25.56;31.48
55010;BME280;40903;51.638;7.528;2023-06-14T09:25:41;101172.88;;;25.48;30.36
55010;BME280;40903;51.638;7.528;2023-06-14T09:28:07;101165.34;;;25.81;32.32
55010;BME280;40903;51.638;7.528;2023-06-14T09:30:33;101172.06;;;26.10;31.05
55010;BME280;40903;51.638;7.528;2023-06-14T09:32:58;101168.19;;;26.21;30.75
55010;BME280;40903;51.638;7.528;2023-06-14T09:35:24;101177.25;;;26.47;30.89
55010;BME280;40903;51.638;7.528;2023-06-14T09:37:49;101179.75;;;26.56;29.99
55010;BME280;40903;51.638;7.528;2023-06-14T09:40:17;101186.72;;;26.36;30.17
55010;BME280;40903;51.638;7.528;2023-06-14T09:42:45;101181.47;;;25.95;30.89
55010;BME280;40903;51.638;7.528;2023-06-14T09:45:10;101186.19;;;25.87;29.63
55010;BME280;40903;51.638;7.528;2023-06-14T09:47:37;101176.88;;;26.09;31.98
55010;BME280;40903;51.638;7.528;2023-06-14T09:50:04;101170.59;;;26.23;30.49
55010;BME280;40903;51.638;7.528;2023-06-14T09:52:29;101173.34;;;26.19;31.12
55010;BME280;40903;51.638;7.528;2023-06-14T09:54:55;101178.72;;;26.34;30.00
55010;BME280;40903;51.638;7.528;2023-06-14T09:57:22;101176.59;;;25.85;30.14
55010;BME280;40903;51.638;7.528;2023-06-14T09:59:48;101187.97;;;26.02;30.32
55010;BME280;40903;51.638;7.528;2023-06-14T10:04:39;101191.59;;;26.06;30.75
55010;BME280;40903;51.638;7.528;2023-06-14T10:07:06;101183.66;;;26.08;30.60
55010;BME280;40903;51.638;7.528;2023-06-14T10:09:31;101184.94;;;26.18;30.05
55010;BME280;40903;51.638;7.528;2023-06-14T10:11:58;101182.56;;;26.20;30.93
55010;BME280;40903;51.638;7.528;2023-06-14T10:14:24;101181.06;;;25.93;30.42
55010;BME280;40903;51.638;7.528;2023-06-14T10:17:03;101183.97;;;26.00;30.71
55010;BME280;40903;51.638;7.528;2023-06-14T10:19:32;101184.38;;;25.72;31.04
55010;BME280;40903;51.638;7.528;2023-06-14T10:22:01;101177.38;;;25.85;31.24
55010;BME280;40903;51.638;7.528;2023-06-14T10:24:40;101182.19;;;25.85;33.38
55010;BME280;40903;51.638;7.528;2023-06-14T10:27:07;101176.47;;;25.78;30.65
55010;BME280;40903;51.638;7.528;2023-06-14T10:30:01;101175.84;;;25.91;30.98
55010;BME280;40903;51.638;7.528;2023-06-14T10:32:26;101178.94;;;26.16;29.94
55010;BME280;40903;51.638;7.528;2023-06-14T10:35:05;101180.72;;;25.98;30.63
55010;BME280;40903;51.638;7.528;2023-06-14T10:37:34;101181.53;;;25.98;31.25
55010;BME280;40903;51.638;7.528;2023-06-14T10:40:00;101178.31;;;25.96;31.75
55010;BME280;40903;51.638;7.528;2023-06-14T10:42:31;101183.59;;;25.72;30.43
55010;BME280;40903;51.638;7.528;2023-06-14T10:44:57;101165.22;;;26.04;33.49
55010;BME280;40903;51.638;7.528;2023-06-14T10:47:29;101174.00;;;26.42;31.94
55010;BME280;40903;51.638;7.528;2023-06-14T10:52:27;101172.09;;;27.00;30.23
55010;BME280;40903;51.638;7.528;2023-06-14T10:57:24;101161.53;;;26.36;31.74
55010;BME280;40903;51.638;7.528;2023-06-14T10:59:49;101170.78;;;26.43;30.71
55010;BME280;40903;51.638;7.528;2023-06-14T11:02:36;101156.59;;;26.59;30.91
55010;BME280;40903;51.638;7.528;2023-06-14T11:05:14;101163.09;;;26.73;31.64
55010;BME280;40903;51.638;7.528;2023-06-14T11:08:18;101167.00;;;26.62;31.26
55010;BME280;40903;51.638;7.528;2023-06-14T11:10:49;101171.19;;;26.82;30.82
55010;BME280;40903;51.638;7.528;2023-06-14T11:13:16;101163.84;;;27.14;29.95
55010;BME280;40903;51.638;7.528;2023-06-14T11:15:46;101166.22;;;27.15;29.76
55010;BME280;40903;51.638;7.528;2023-06-14T11:18:13;101169.31;;;27.03;30.21
55010;BME280;40903;51.638;7.528;2023-06-14T11:20:39;101162.34;;;26.76;30.74
55010;BME280;40903;51.638;7.528;2023-06-14T11:23:05;101161.09;;;26.74;29.44
55010;BME280;40903;51.638;7.528;2023-06-14T11:25:30;101163.91;;;26.74;29.75
55010;BME280;40903;51.638;7.528;2023-06-14T11:27:56;101149.03;;;27.17;31.66
55010;BME280;40903;51.638;7.528;2023-06-14T11:30:22;101161.94;;;27.39;29.16
55010;BME280;40903;51.638;7.528;2023-06-14T11:32:49;101165.53;;;27.29;29.93
55010;BME280;40903;51.638;7.528;2023-06-14T11:35:16;101163.00;;;27.13;28.74
55010;BME280;40903;51.638;7.528;2023-06-14T11:37:42;101156.31;;;27.28;29.72
55010;BME280;40903;51.638;7.528;2023-06-14T11:40:10;101162.00;;;26.85;30.60
55010;BME280;40903;51.638;7.528;2023-06-14T11:42:37;101161.16;;;26.77;30.20
55010;BME280;40903;51.638;7.528;2023-06-14T11:45:04;101151.84;;;26.66;30.19
55010;BME280;40903;51.638;7.528;2023-06-14T11:47:32;101159.31;;;26.99;30.01
55010;BME280;40903;51.638;7.528;2023-06-14T11:49:59;101163.03;;;27.17;29.46
55010;BME280;40903;51.638;7.528;2023-06-14T11:52:25;101155.63;;;26.88;29.37
55010;BME280;40903;51.638;7.528;2023-06-14T11:54:50;101157.53;;;26.77;29.43
55010;BME280;40903;51.638;7.528;2023-06-14T11:57:18;101158.66;;;27.23;30.24
55010;BME280;40903;51.638;7.528;2023-06-14T11:59:44;101153.13;;;27.30;29.29
55010;BME280;40903;51.638;7.528;2023-06-14T12:02:14;101161.19;;;27.42;28.48
55010;BME280;40903;51.638;7.528;2023-06-14T12:04:43;101154.91;;;27.69;29.54
55010;BME280;40903;51.638;7.528;2023-06-14T12:07:13;101150.38;;;27.44;29.27
55010;BME280;40903;51.638;7.528;2023-06-14T12:12:28;101161.94;;;27.32;28.60
55010;BME280;40903;51.638;7.528;2023-06-14T12:14:55;101152.41;;;27.54;29.97
55010;BME280;40903;51.638;7.528;2023-06-14T12:17:21;101161.28;;;27.63;28.68
55010;BME280;40903;51.638;7.528;2023-06-14T12:19:48;101157.66;;;27.62;28.28
55010;BME280;40903;51.638;7.528;2023-06-14T12:22:16;101158.38;;;27.45;29.12
55010;BME280;40903;51.638;7.528;2023-06-14T12:24:45;101168.34;;;27.36;29.25
55010;BME280;40903;51.638;7.528;2023-06-14T12:27:11;101154.22;;;27.18;29.64
55010;BME280;40903;51.638;7.528;2023-06-14T12:29:43;101157.28;;;26.99;28.69
55010;BME280;40903;51.638;7.528;2023-06-14T12:32:09;101149.91;;;27.31;28.84
55010;BME280;40903;51.638;7.528;2023-06-14T12:34:34;101149.13;;;27.31;28.53
55010;BME280;40903;51.638;7.528;2023-06-14T12:37:00;101148.75;;;27.36;29.71
55010;BME280;40903;51.638;7.528;2023-06-14T12:39:26;101153.53;;;27.32;29.18
55010;BME280;40903;51.638;7.528;2023-06-14T12:41:51;101142.41;;;27.53;29.17
55010;BME280;40903;51.638;7.528;2023-06-14T12:44:16;101140.00;;;27.55;28.78
55010;BME280;40903;51.638;7.528;2023-06-14T12:46:42;101146.47;;;27.66;28.95
55010;BME280;40903;51.638;7.528;2023-06-14T12:49:09;101150.03;;;27.56;27.88
55010;BME280;40903;51.638;7.528;2023-06-14T12:51:36;101159.81;;;27.11;28.99
55010;BME280;40903;51.638;7.528;2023-06-14T12:54:02;101149.53;;;27.33;29.51
55010;BME280;40903;51.638;7.528;2023-06-14T12:56:28;101163.94;;;27.35;29.29
55010;BME280;40903;51.638;7.528;2023-06-14T12:58:53;101151.47;;;27.22;28.84
55010;BME280;40903;51.638;7.528;2023-06-14T13:01:19;101166.22;;;27.12;29.37